sensor_id;sensor_type;location;lat;lon;timestamp;P1;durP1;ratioP1;P2;durP2;ratioP2
37383;SDS011;23258;49.718;11.082;2022-12-07T00:00:10;6.87;;;5.37;;
37383;SDS011;23258;49.718;11.082;2022-12-07T00:02:40;6.07;;;4.73;;
37383;SDS011;23258;49.718;11.082;2022-12-07T00:05:10;6.70;;;5.13;;
37383;SDS011;23258;49.718;11.082;2022-12-07T00:07:39;5.27;;;4.77;;
37383;SDS011;23258;49.718;11.082;2022-12-07T00:10:09;7.50;;;5.33;;
37383;SDS011;23258;49.718;11.082;2022-12-07T00:12:41;6.87;;;5.00;;
37383;SDS011;23258;49.718;11.082;2022-12-07T00:15:10;6.03;;;5.27;;
37383;SDS011;23258;49.718;11.082;2022-12-07T00:17:40;5.40;;;4.77;;
37383;SDS011;23258;49.718;11.082;2022-12-07T00:20:10;6.73;;;5.40;;
37383;SDS011;23258;49.718;11.082;2022-12-07T00:22:39;5.03;;;4.63;;
37383;SDS011;23258;49.718;11.082;2022-12-07T00:25:08;5.97;;;5.23;;
37383;SDS011;23258;49.718;11.082;2022-12-07T00:27:41;5.43;;;5.00;;
37383;SDS011;23258;49.718;11.082;2022-12-07T00:30:10;6.13;;;4.87;;
37383;SDS011;23258;49.718;11.082;2022-12-07T00:32:40;5.87;;;4.80;;
37383;SDS011;23258;49.718;11.082;2022-12-07T00:35:09;6.13;;;5.53;;
37383;SDS011;23258;49.718;11.082;2022-12-07T00:37:39;5.53;;;5.03;;
37383;SDS011;23258;49.718;11.082;2022-12-07T00:40:09;7.97;;;5.57;;
37383;SDS011;23258;49.718;11.082;2022-12-07T00:42:41;4.53;;;4.17;;
37383;SDS011;23258;49.718;11.082;2022-12-07T00:45:10;5.33;;;4.67;;
37383;SDS011;23258;49.718;11.082;2022-12-07T00:47:40;5.83;;;5.33;;
37383;SDS011;23258;49.718;11.082;2022-12-07T00:50:09;6.17;;;5.57;;
37383;SDS011;23258;49.718;11.082;2022-12-07T00:52:39;5.80;;;5.07;;
37383;SDS011;23258;49.718;11.082;2022-12-07T00:55:08;6.30;;;5.37;;
37383;SDS011;23258;49.718;11.082;2022-12-07T00:57:38;6.00;;;5.47;;
37383;SDS011;23258;49.718;11.082;2022-12-07T01:00:10;5.43;;;4.90;;
37383;SDS011;23258;49.718;11.082;2022-12-07T01:02:40;5.80;;;5.30;;
37383;SDS011;23258;49.718;11.082;2022-12-07T01:05:09;6.37;;;5.07;;
37383;SDS011;23258;49.718;11.082;2022-12-07T01:07:39;6.50;;;5.60;;
37383;SDS011;23258;49.718;11.082;2022-12-07T01:10:09;6.40;;;5.30;;
37383;SDS011;23258;49.718;11.082;2022-12-07T01:12:38;6.75;;;5.90;;
37383;SDS011;23258;49.718;11.082;2022-12-07T01:15:11;6.20;;;5.67;;
37383;SDS011;23258;49.718;11.082;2022-12-07T01:17:40;6.60;;;5.17;;
37383;SDS011;23258;49.718;11.082;2022-12-07T01:20:11;5.60;;;5.10;;
37383;SDS011;23258;49.718;11.082;2022-12-07T01:22:42;5.63;;;5.13;;
37383;SDS011;23258;49.718;11.082;2022-12-07T01:25:12;4.73;;;4.30;;
37383;SDS011;23258;49.718;11.082;2022-12-07T01:27:41;5.57;;;5.07;;
37383;SDS011;23258;49.718;11.082;2022-12-07T01:30:14;5.03;;;4.63;;
37383;SDS011;23258;49.718;11.082;2022-12-07T01:32:44;5.63;;;5.13;;
37383;SDS011;23258;49.718;11.082;2022-12-07T01:35:13;4.83;;;4.43;;
37383;SDS011;23258;49.718;11.082;2022-12-07T01:37:43;4.90;;;4.50;;
37383;SDS011;23258;49.718;11.082;2022-12-07T01:40:12;4.87;;;4.33;;
37383;SDS011;23258;49.718;11.082;2022-12-07T01:42:42;4.40;;;4.00;;
37383;SDS011;23258;49.718;11.082;2022-12-07T01:45:36;8.00;;;5.33;;
37383;SDS011;23258;49.718;11.082;2022-12-07T01:48:06;8.67;;;6.47;;
37383;SDS011;23258;49.718;11.082;2022-12-07T01:50:37;5.53;;;5.03;;
37383;SDS011;23258;49.718;11.082;2022-12-07T01:53:07;6.00;;;5.47;;
37383;SDS011;23258;49.718;11.082;2022-12-07T01:55:38;6.93;;;6.23;;
37383;SDS011;23258;49.718;11.082;2022-12-07T01:58:09;6.63;;;5.50;;
37383;SDS011;23258;49.718;11.082;2022-12-07T02:00:42;5.17;;;4.70;;
37383;SDS011;23258;49.718;11.082;2022-12-07T02:03:13;5.68;;;5.13;;
37383;SDS011;23258;49.718;11.082;2022-12-07T02:05:44;6.03;;;5.00;;
37383;SDS011;23258;49.718;11.082;2022-12-07T02:08:15;6.80;;;4.97;;
37383;SDS011;23258;49.718;11.082;2022-12-07T02:10:46;5.07;;;4.67;;
37383;SDS011;23258;49.718;11.082;2022-12-07T02:13:15;6.57;;;5.97;;
37383;SDS011;23258;49.718;11.082;2022-12-07T02:15:59;7.33;;;4.87;;
37383;SDS011;23258;49.718;11.082;2022-12-07T02:18:34;5.53;;;4.97;;
37383;SDS011;23258;49.718;11.082;2022-12-07T02:21:08;6.70;;;5.80;;
37383;SDS011;23258;49.718;11.082;2022-12-07T02:23:47;5.57;;;5.07;;
37383;SDS011;23258;49.718;11.082;2022-12-07T02:26:30;6.43;;;5.72;;
37383;SDS011;23258;49.718;11.082;2022-12-07T02:29:15;8.47;;;5.73;;
37383;SDS011;23258;49.718;11.082;2022-12-07T02:31:48;5.27;;;4.77;;
37383;SDS011;23258;49.718;11.082;2022-12-07T02:34:21;5.23;;;4.63;;
37383;SDS011;23258;49.718;11.082;2022-12-07T02:36:52;5.27;;;4.87;;
37383;SDS011;23258;49.718;11.082;2022-12-07T02:39:25;5.80;;;4.90;;
37383;SDS011;23258;49.718;11.082;2022-12-07T02:41:56;5.80;;;5.30;;
37383;SDS011;23258;49.718;11.082;2022-12-07T02:44:31;5.80;;;5.20;;
37383;SDS011;23258;49.718;11.082;2022-12-07T02:47:03;7.30;;;6.43;;
37383;SDS011;23258;49.718;11.082;2022-12-07T02:49:33;7.33;;;6.30;;
37383;SDS011;23258;49.718;11.082;2022-12-07T02:52:04;6.20;;;5.67;;
37383;SDS011;23258;49.718;11.082;2022-12-07T02:54:34;7.33;;;5.83;;
37383;SDS011;23258;49.718;11.082;2022-12-07T02:57:06;7.80;;;6.23;;
37383;SDS011;23258;49.718;11.082;2022-12-07T02:59:44;7.27;;;5.90;;
37383;SDS011;23258;49.718;11.082;2022-12-07T03:02:19;6.37;;;5.77;;
37383;SDS011;23258;49.718;11.082;2022-12-07T03:04:54;8.47;;;5.50;;
37383;SDS011;23258;49.718;11.082;2022-12-07T03:07:30;6.97;;;5.93;;
37383;SDS011;23258;49.718;11.082;2022-12-07T03:10:03;5.90;;;5.40;;
37383;SDS011;23258;49.718;11.082;2022-12-07T03:12:36;6.80;;;5.70;;
37383;SDS011;23258;49.718;11.082;2022-12-07T03:15:12;7.30;;;5.73;;
37383;SDS011;23258;49.718;11.082;2022-12-07T03:17:42;5.93;;;5.43;;
37383;SDS011;23258;49.718;11.082;2022-12-07T03:20:14;6.17;;;5.67;;
37383;SDS011;23258;49.718;11.082;2022-12-07T03:22:45;6.37;;;5.80;;
37383;SDS011;23258;49.718;11.082;2022-12-07T03:25:16;6.37;;;5.73;;
37383;SDS011;23258;49.718;11.082;2022-12-07T03:27:47;6.20;;;5.60;;
37383;SDS011;23258;49.718;11.082;2022-12-07T03:30:21;6.10;;;5.40;;
37383;SDS011;23258;49.718;11.082;2022-12-07T03:32:53;6.97;;;5.93;;
37383;SDS011;23258;49.718;11.082;2022-12-07T03:35:26;6.00;;;5.50;;
37383;SDS011;23258;49.718;11.082;2022-12-07T03:37:57;6.20;;;5.37;;
37383;SDS011;23258;49.718;11.082;2022-12-07T03:40:28;5.77;;;5.27;;
37383;SDS011;23258;49.718;11.082;2022-12-07T03:42:59;6.67;;;5.97;;
37383;SDS011;23258;49.718;11.082;2022-12-07T03:45:35;7.60;;;5.97;;
37383;SDS011;23258;49.718;11.082;2022-12-07T03:48:08;7.27;;;5.83;;
37383;SDS011;23258;49.718;11.082;2022-12-07T03:50:40;6.00;;;5.50;;
37383;SDS011;23258;49.718;11.082;2022-12-07T03:53:11;7.90;;;6.07;;
37383;SDS011;23258;49.718;11.082;2022-12-07T03:55:44;7.83;;;7.03;;
37383;SDS011;23258;49.718;11.082;2022-12-07T03:58:17;7.57;;;5.90;;
37383;SDS011;23258;49.718;11.082;2022-12-07T04:00:51;6.63;;;6.03;;
37383;SDS011;23258;49.718;11.082;2022-12-07T04:03:20;7.00;;;6.27;;
37383;SDS011;23258;49.718;11.082;2022-12-07T04:05:50;8.53;;;6.40;;
37383;SDS011;23258;49.718;11.082;2022-12-07T04:08:19;7.03;;;6.30;;
37383;SDS011;23258;49.718;11.082;2022-12-07T04:10:49;6.60;;;5.90;;
37383;SDS011;23258;49.718;11.082;2022-12-07T04:13:18;7.10;;;5.83;;
37383;SDS011;23258;49.718;11.082;2022-12-07T04:15:50;6.33;;;5.73;;
37383;SDS011;23258;49.718;11.082;2022-12-07T04:18:20;6.30;;;5.70;;
37383;SDS011;23258;49.718;11.082;2022-12-07T04:20:50;7.43;;;6.67;;
37383;SDS011;23258;49.718;11.082;2022-12-07T04:23:19;6.80;;;5.87;;
37383;SDS011;23258;49.718;11.082;2022-12-07T04:25:49;8.53;;;6.23;;
37383;SDS011;23258;49.718;11.082;2022-12-07T04:28:18;7.57;;;5.90;;
37383;SDS011;23258;49.718;11.082;2022-12-07T04:30:48;6.77;;;6.10;;
37383;SDS011;23258;49.718;11.082;2022-12-07T04:33:20;6.13;;;5.50;;
37383;SDS011;23258;49.718;11.082;2022-12-07T04:35:49;6.37;;;5.37;;
37383;SDS011;23258;49.718;11.082;2022-12-07T04:38:19;7.00;;;6.17;;
37383;SDS011;23258;49.718;11.082;2022-12-07T04:40:48;6.23;;;5.63;;
37383;SDS011;23258;49.718;11.082;2022-12-07T04:43:18;6.83;;;5.90;;
37383;SDS011;23258;49.718;11.082;2022-12-07T04:45:47;8.13;;;6.93;;
37383;SDS011;23258;49.718;11.082;2022-12-07T04:48:20;7.47;;;6.30;;
37383;SDS011;23258;49.718;11.082;2022-12-07T04:50:49;7.83;;;6.70;;
37383;SDS011;23258;49.718;11.082;2022-12-07T04:53:19;6.90;;;5.90;;
37383;SDS011;23258;49.718;11.082;2022-12-07T04:55:48;7.37;;;6.60;;
37383;SDS011;23258;49.718;11.082;2022-12-07T04:58:18;7.73;;;6.63;;
37383;SDS011;23258;49.718;11.082;2022-12-07T05:00:47;7.07;;;6.20;;
37383;SDS011;23258;49.718;11.082;2022-12-07T05:03:19;7.73;;;6.53;;
37383;SDS011;23258;49.718;11.082;2022-12-07T05:05:49;9.37;;;5.90;;
37383;SDS011;23258;49.718;11.082;2022-12-07T05:08:18;7.40;;;6.47;;
37383;SDS011;23258;49.718;11.082;2022-12-07T05:10:48;7.80;;;7.00;;
37383;SDS011;23258;49.718;11.082;2022-12-07T05:13:18;8.23;;;6.60;;
37383;SDS011;23258;49.718;11.082;2022-12-07T05:15:47;9.03;;;6.30;;
37383;SDS011;23258;49.718;11.082;2022-12-07T05:18:19;8.37;;;6.60;;
37383;SDS011;23258;49.718;11.082;2022-12-07T05:20:49;8.03;;;6.40;;
37383;SDS011;23258;49.718;11.082;2022-12-07T05:23:19;9.30;;;7.10;;
37383;SDS011;23258;49.718;11.082;2022-12-07T05:25:49;8.60;;;6.23;;
37383;SDS011;23258;49.718;11.082;2022-12-07T05:28:19;10.20;;;6.63;;
37383;SDS011;23258;49.718;11.082;2022-12-07T05:30:48;9.20;;;7.03;;
37383;SDS011;23258;49.718;11.082;2022-12-07T05:33:27;9.97;;;6.73;;
37383;SDS011;23258;49.718;11.082;2022-12-07T05:35:57;9.47;;;7.07;;
37383;SDS011;23258;49.718;11.082;2022-12-07T05:38:32;9.33;;;7.00;;
37383;SDS011;23258;49.718;11.082;2022-12-07T05:41:01;8.40;;;7.33;;
37383;SDS011;23258;49.718;11.082;2022-12-07T05:43:31;9.37;;;7.30;;
37383;SDS011;23258;49.718;11.082;2022-12-07T05:45:59;8.10;;;7.17;;
37383;SDS011;23258;49.718;11.082;2022-12-07T05:48:31;9.77;;;6.97;;
37383;SDS011;23258;49.718;11.082;2022-12-07T05:51:00;7.67;;;6.43;;
37383;SDS011;23258;49.718;11.082;2022-12-07T05:53:30;8.50;;;7.23;;
37383;SDS011;23258;49.718;11.082;2022-12-07T05:55:59;8.53;;;7.63;;
37383;SDS011;23258;49.718;11.082;2022-12-07T05:58:29;8.47;;;6.83;;
37383;SDS011;23258;49.718;11.082;2022-12-07T06:01:13;8.20;;;7.37;;
37383;SDS011;23258;49.718;11.082;2022-12-07T06:03:45;8.20;;;7.28;;
37383;SDS011;23258;49.718;11.082;2022-12-07T06:06:15;9.17;;;8.20;;
37383;SDS011;23258;49.718;11.082;2022-12-07T06:08:45;9.20;;;7.13;;
37383;SDS011;23258;49.718;11.082;2022-12-07T06:11:14;8.87;;;6.53;;
37383;SDS011;23258;49.718;11.082;2022-12-07T06:13:56;7.47;;;6.70;;
37383;SDS011;23258;49.718;11.082;2022-12-07T06:16:26;7.50;;;6.40;;
37383;SDS011;23258;49.718;11.082;2022-12-07T06:18:58;9.20;;;6.70;;
37383;SDS011;23258;49.718;11.082;2022-12-07T06:21:27;8.57;;;7.67;;
37383;SDS011;23258;49.718;11.082;2022-12-07T06:23:57;10.77;;;7.27;;
37383;SDS011;23258;49.718;11.082;2022-12-07T06:26:26;8.83;;;7.77;;
37383;SDS011;23258;49.718;11.082;2022-12-07T06:28:56;8.10;;;7.20;;
37383;SDS011;23258;49.718;11.082;2022-12-07T06:31:25;8.03;;;7.23;;
37383;SDS011;23258;49.718;11.082;2022-12-07T06:33:59;10.97;;;7.00;;
37383;SDS011;23258;49.718;11.082;2022-12-07T06:36:29;10.70;;;7.83;;
37383;SDS011;23258;49.718;11.082;2022-12-07T06:38:59;10.30;;;8.32;;
37383;SDS011;23258;49.718;11.082;2022-12-07T06:41:28;11.33;;;9.03;;
37383;SDS011;23258;49.718;11.082;2022-12-07T06:43:58;10.17;;;8.27;;
37383;SDS011;23258;49.718;11.082;2022-12-07T06:46:27;10.50;;;7.67;;
37383;SDS011;23258;49.718;11.082;2022-12-07T06:49:00;13.03;;;7.90;;
37383;SDS011;23258;49.718;11.082;2022-12-07T06:51:29;11.83;;;8.27;;
37383;SDS011;23258;49.718;11.082;2022-12-07T06:53:59;10.67;;;8.63;;
37383;SDS011;23258;49.718;11.082;2022-12-07T06:56:28;11.00;;;8.50;;
37383;SDS011;23258;49.718;11.082;2022-12-07T06:58:58;12.27;;;8.60;;
37383;SDS011;23258;49.718;11.082;2022-12-07T07:01:27;11.05;;;8.43;;
37383;SDS011;23258;49.718;11.082;2022-12-07T07:04:00;9.40;;;7.83;;
37383;SDS011;23258;49.718;11.082;2022-12-07T07:06:30;10.40;;;7.87;;
37383;SDS011;23258;49.718;11.082;2022-12-07T07:08:59;11.07;;;7.50;;
37383;SDS011;23258;49.718;11.082;2022-12-07T07:11:29;9.37;;;7.53;;
37383;SDS011;23258;49.718;11.082;2022-12-07T07:13:58;12.50;;;8.07;;
37383;SDS011;23258;49.718;11.082;2022-12-07T07:16:29;12.77;;;8.97;;
37383;SDS011;23258;49.718;11.082;2022-12-07T07:19:01;11.00;;;7.43;;
37383;SDS011;23258;49.718;11.082;2022-12-07T07:21:31;12.10;;;8.67;;
37383;SDS011;23258;49.718;11.082;2022-12-07T07:24:01;9.97;;;7.53;;
37383;SDS011;23258;49.718;11.082;2022-12-07T07:26:30;9.77;;;8.70;;
37383;SDS011;23258;49.718;11.082;2022-12-07T07:29:00;10.33;;;8.23;;
37383;SDS011;23258;49.718;11.082;2022-12-07T07:31:36;11.93;;;8.23;;
37383;SDS011;23258;49.718;11.082;2022-12-07T07:38:13;10.40;;;7.77;;
37383;SDS011;23258;49.718;11.082;2022-12-07T07:41:31;12.27;;;8.63;;
37383;SDS011;23258;49.718;11.082;2022-12-07T07:47:59;8.93;;;7.33;;
37383;SDS011;23258;49.718;11.082;2022-12-07T07:51:31;12.73;;;8.77;;
37383;SDS011;23258;49.718;11.082;2022-12-07T07:57:54;8.97;;;7.57;;
37383;SDS011;23258;49.718;11.082;2022-12-07T08:00:24;12.53;;;9.53;;
37383;SDS011;23258;49.718;11.082;2022-12-07T08:02:53;13.40;;;9.40;;
37383;SDS011;23258;49.718;11.082;2022-12-07T08:05:23;12.07;;;9.43;;
37383;SDS011;23258;49.718;11.082;2022-12-07T08:07:53;10.23;;;8.00;;
37383;SDS011;23258;49.718;11.082;2022-12-07T08:10:22;12.17;;;9.40;;
37383;SDS011;23258;49.718;11.082;2022-12-07T08:12:55;10.33;;;8.47;;
37383;SDS011;23258;49.718;11.082;2022-12-07T08:15:37;13.10;;;8.47;;
37383;SDS011;23258;49.718;11.082;2022-12-07T08:18:07;9.90;;;7.97;;
37383;SDS011;23258;49.718;11.082;2022-12-07T08:20:58;9.67;;;7.63;;
37383;SDS011;23258;49.718;11.082;2022-12-07T08:24:10;11.63;;;8.70;;
37383;SDS011;23258;49.718;11.082;2022-12-07T08:27:27;10.53;;;8.10;;
37383;SDS011;23258;49.718;11.082;2022-12-07T08:30:30;10.70;;;8.73;;
37383;SDS011;23258;49.718;11.082;2022-12-07T08:33:26;12.33;;;8.57;;
37383;SDS011;23258;49.718;11.082;2022-12-07T08:35:59;10.13;;;8.23;;
37383;SDS011;23258;49.718;11.082;2022-12-07T08:38:29;11.90;;;8.83;;
37383;SDS011;23258;49.718;11.082;2022-12-07T08:40:58;11.77;;;8.30;;
37383;SDS011;23258;49.718;11.082;2022-12-07T08:43:28;14.83;;;9.33;;
37383;SDS011;23258;49.718;11.082;2022-12-07T08:46:02;13.53;;;9.00;;
37383;SDS011;23258;49.718;11.082;2022-12-07T08:48:34;11.60;;;9.13;;
37383;SDS011;23258;49.718;11.082;2022-12-07T08:51:05;11.87;;;8.60;;
37383;SDS011;23258;49.718;11.082;2022-12-07T08:53:34;10.70;;;8.73;;
37383;SDS011;23258;49.718;11.082;2022-12-07T08:56:07;11.37;;;8.87;;
37383;SDS011;23258;49.718;11.082;2022-12-07T08:58:37;12.30;;;8.57;;
37383;SDS011;23258;49.718;11.082;2022-12-07T09:01:10;13.13;;;9.70;;
37383;SDS011;23258;49.718;11.082;2022-12-07T09:03:40;11.03;;;8.33;;
37383;SDS011;23258;49.718;11.082;2022-12-07T09:06:09;12.80;;;8.80;;
37383;SDS011;23258;49.718;11.082;2022-12-07T09:08:40;11.03;;;8.30;;
37383;SDS011;23258;49.718;11.082;2022-12-07T09:11:11;10.77;;;8.23;;
37383;SDS011;23258;49.718;11.082;2022-12-07T09:13:41;10.90;;;8.43;;
37383;SDS011;23258;49.718;11.082;2022-12-07T09:16:13;11.00;;;8.73;;
37383;SDS011;23258;49.718;11.082;2022-12-07T09:18:43;9.63;;;7.73;;
37383;SDS011;23258;49.718;11.082;2022-12-07T09:21:12;10.07;;;8.47;;
37383;SDS011;23258;49.718;11.082;2022-12-07T09:23:42;10.97;;;8.53;;
37383;SDS011;23258;49.718;11.082;2022-12-07T09:26:12;11.20;;;8.13;;
37383;SDS011;23258;49.718;11.082;2022-12-07T09:28:41;12.87;;;8.80;;
37383;SDS011;23258;49.718;11.082;2022-12-07T09:31:13;12.60;;;8.77;;
37383;SDS011;23258;49.718;11.082;2022-12-07T09:33:55;13.03;;;8.13;;
37383;SDS011;23258;49.718;11.082;2022-12-07T09:36:25;14.40;;;9.43;;
37383;SDS011;23258;49.718;11.082;2022-12-07T09:38:54;12.87;;;9.20;;
37383;SDS011;23258;49.718;11.082;2022-12-07T09:41:24;11.37;;;9.70;;
37383;SDS011;23258;49.718;11.082;2022-12-07T09:44:00;11.53;;;9.03;;
37383;SDS011;23258;49.718;11.082;2022-12-07T09:46:36;10.97;;;8.73;;
37383;SDS011;23258;49.718;11.082;2022-12-07T09:49:08;11.43;;;8.60;;
37383;SDS011;23258;49.718;11.082;2022-12-07T09:51:38;8.87;;;7.97;;
37383;SDS011;23258;49.718;11.082;2022-12-07T09:54:08;9.47;;;8.40;;
37383;SDS011;23258;49.718;11.082;2022-12-07T09:56:38;12.27;;;9.33;;
37383;SDS011;23258;49.718;11.082;2022-12-07T09:59:09;8.67;;;7.77;;
37383;SDS011;23258;49.718;11.082;2022-12-07T10:01:44;11.13;;;8.23;;
37383;SDS011;23258;49.718;11.082;2022-12-07T10:04:15;11.17;;;8.70;;
37383;SDS011;23258;49.718;11.082;2022-12-07T10:06:45;17.20;;;8.50;;
37383;SDS011;23258;49.718;11.082;2022-12-07T10:09:19;10.90;;;8.70;;
37383;SDS011;23258;49.718;11.082;2022-12-07T10:11:59;9.10;;;7.50;;
37383;SDS011;23258;49.718;11.082;2022-12-07T10:14:29;10.03;;;8.27;;
37383;SDS011;23258;49.718;11.082;2022-12-07T10:17:32;10.47;;;8.70;;
37383;SDS011;23258;49.718;11.082;2022-12-07T10:20:17;8.77;;;7.73;;
37383;SDS011;23258;49.718;11.082;2022-12-07T10:25:35;11.57;;;7.97;;
37383;SDS011;23258;49.718;11.082;2022-12-07T10:28:13;10.70;;;8.07;;
37383;SDS011;23258;49.718;11.082;2022-12-07T10:30:48;12.07;;;8.97;;
37383;SDS011;23258;49.718;11.082;2022-12-07T10:33:29;13.60;;;9.27;;
37383;SDS011;23258;49.718;11.082;2022-12-07T10:36:00;10.30;;;8.87;;
37383;SDS011;23258;49.718;11.082;2022-12-07T10:38:30;14.27;;;9.67;;
37383;SDS011;23258;49.718;11.082;2022-12-07T10:41:03;11.27;;;8.90;;
37383;SDS011;23258;49.718;11.082;2022-12-07T10:43:33;11.23;;;9.13;;
37383;SDS011;23258;49.718;11.082;2022-12-07T10:46:14;11.70;;;8.97;;
37383;SDS011;23258;49.718;11.082;2022-12-07T10:48:52;11.60;;;8.90;;
37383;SDS011;23258;49.718;11.082;2022-12-07T10:51:25;10.27;;;7.87;;
37383;SDS011;23258;49.718;11.082;2022-12-07T10:54:08;9.47;;;7.27;;
37383;SDS011;23258;49.718;11.082;2022-12-07T10:59:37;13.33;;;8.60;;
37383;SDS011;23258;49.718;11.082;2022-12-07T11:02:15;10.00;;;7.97;;
37383;SDS011;23258;49.718;11.082;2022-12-07T11:04:54;9.23;;;7.27;;
37383;SDS011;23258;49.718;11.082;2022-12-07T11:07:28;10.93;;;8.30;;
37383;SDS011;23258;49.718;11.082;2022-12-07T11:10:05;10.73;;;8.77;;
37383;SDS011;23258;49.718;11.082;2022-12-07T11:12:43;10.60;;;7.90;;
37383;SDS011;23258;49.718;11.082;2022-12-07T11:15:17;9.77;;;8.60;;
37383;SDS011;23258;49.718;11.082;2022-12-07T11:17:49;9.43;;;7.80;;
37383;SDS011;23258;49.718;11.082;2022-12-07T11:20:28;9.97;;;8.40;;
37383;SDS011;23258;49.718;11.082;2022-12-07T11:22:59;10.00;;;7.77;;
37383;SDS011;23258;49.718;11.082;2022-12-07T11:25:32;15.17;;;7.93;;
37383;SDS011;23258;49.718;11.082;2022-12-07T11:28:13;8.80;;;6.90;;
37383;SDS011;23258;49.718;11.082;2022-12-07T11:30:46;9.23;;;8.20;;
37383;SDS011;23258;49.718;11.082;2022-12-07T11:33:20;8.43;;;7.53;;
37383;SDS011;23258;49.718;11.082;2022-12-07T11:35:58;9.03;;;7.90;;
37383;SDS011;23258;49.718;11.082;2022-12-07T11:38:33;10.77;;;7.53;;
37383;SDS011;23258;49.718;11.082;2022-12-07T11:41:05;8.43;;;7.43;;
37383;SDS011;23258;49.718;11.082;2022-12-07T11:43:49;10.57;;;8.73;;
37383;SDS011;23258;49.718;11.082;2022-12-07T11:46:19;8.40;;;7.30;;
37383;SDS011;23258;49.718;11.082;2022-12-07T11:48:52;9.87;;;8.80;;
37383;SDS011;23258;49.718;11.082;2022-12-07T11:51:27;12.57;;;7.60;;
37383;SDS011;23258;49.718;11.082;2022-12-07T11:54:00;10.57;;;7.67;;
37383;SDS011;23258;49.718;11.082;2022-12-07T11:56:30;7.23;;;6.37;;
37383;SDS011;23258;49.718;11.082;2022-12-07T11:59:07;8.40;;;7.50;;
37383;SDS011;23258;49.718;11.082;2022-12-07T12:01:42;10.20;;;7.67;;
37383;SDS011;23258;49.718;11.082;2022-12-07T12:04:17;9.63;;;7.60;;
37383;SDS011;23258;49.718;11.082;2022-12-07T12:06:52;8.70;;;7.03;;
37383;SDS011;23258;49.718;11.082;2022-12-07T12:09:23;11.63;;;6.97;;
37383;SDS011;23258;49.718;11.082;2022-12-07T12:18:06;14.97;;;8.37;;
37383;SDS011;23258;49.718;11.082;2022-12-07T12:20:40;9.40;;;7.10;;
37383;SDS011;23258;49.718;11.082;2022-12-07T12:23:15;9.60;;;7.50;;
37383;SDS011;23258;49.718;11.082;2022-12-07T12:25:46;9.57;;;6.45;;
37383;SDS011;23258;49.718;11.082;2022-12-07T12:28:22;11.47;;;7.03;;
37383;SDS011;23258;49.718;11.082;2022-12-07T12:31:06;9.73;;;6.90;;
37383;SDS011;23258;49.718;11.082;2022-12-07T12:33:37;8.43;;;6.55;;
37383;SDS011;23258;49.718;11.082;2022-12-07T12:41:55;7.47;;;6.63;;
37383;SDS011;23258;49.718;11.082;2022-12-07T12:50:25;8.80;;;6.20;;
37383;SDS011;23258;49.718;11.082;2022-12-07T12:53:00;7.83;;;7.03;;
37383;SDS011;23258;49.718;11.082;2022-12-07T12:58:26;8.53;;;6.47;;
37383;SDS011;23258;49.718;11.082;2022-12-07T13:03:50;7.63;;;6.47;;
37383;SDS011;23258;49.718;11.082;2022-12-07T13:06:31;8.43;;;6.80;;
37383;SDS011;23258;49.718;11.082;2022-12-07T13:09:04;7.27;;;6.60;;
37383;SDS011;23258;49.718;11.082;2022-12-07T13:11:34;8.83;;;6.37;;
37383;SDS011;23258;49.718;11.082;2022-12-07T13:17:01;8.10;;;6.80;;
37383;SDS011;23258;49.718;11.082;2022-12-07T13:22:36;9.67;;;7.83;;
37383;SDS011;23258;49.718;11.082;2022-12-07T13:25:09;5.97;;;5.47;;
37383;SDS011;23258;49.718;11.082;2022-12-07T13:27:39;6.67;;;5.93;;
37383;SDS011;23258;49.718;11.082;2022-12-07T13:30:13;5.53;;;5.03;;
37383;SDS011;23258;49.718;11.082;2022-12-07T13:32:45;6.17;;;5.57;;
37383;SDS011;23258;49.718;11.082;2022-12-07T13:35:30;6.30;;;5.70;;
37383;SDS011;23258;49.718;11.082;2022-12-07T13:38:01;9.60;;;6.13;;
37383;SDS011;23258;49.718;11.082;2022-12-07T13:40:31;7.20;;;6.33;;
37383;SDS011;23258;49.718;11.082;2022-12-07T13:43:02;6.60;;;5.93;;
37383;SDS011;23258;49.718;11.082;2022-12-07T13:45:33;6.37;;;5.77;;
37383;SDS011;23258;49.718;11.082;2022-12-07T13:48:24;7.77;;;5.97;;
37383;SDS011;23258;49.718;11.082;2022-12-07T13:50:57;7.00;;;5.77;;
37383;SDS011;23258;49.718;11.082;2022-12-07T13:53:27;6.93;;;5.63;;
37383;SDS011;23258;49.718;11.082;2022-12-07T13:55:58;6.17;;;5.33;;
37383;SDS011;23258;49.718;11.082;2022-12-07T13:58:30;7.93;;;6.03;;
37383;SDS011;23258;49.718;11.082;2022-12-07T14:00:59;5.73;;;5.23;;
37383;SDS011;23258;49.718;11.082;2022-12-07T14:03:33;5.93;;;5.33;;
37383;SDS011;23258;49.718;11.082;2022-12-07T14:06:10;8.70;;;5.93;;
37383;SDS011;23258;49.718;11.082;2022-12-07T14:08:42;6.33;;;5.13;;
37383;SDS011;23258;49.718;11.082;2022-12-07T14:11:16;5.90;;;5.40;;
37383;SDS011;23258;49.718;11.082;2022-12-07T14:13:55;7.23;;;5.20;;
37383;SDS011;23258;49.718;11.082;2022-12-07T14:16:27;5.77;;;5.20;;
37383;SDS011;23258;49.718;11.082;2022-12-07T14:19:00;8.67;;;5.53;;
37383;SDS011;23258;49.718;11.082;2022-12-07T14:21:31;8.03;;;5.63;;
37383;SDS011;23258;49.718;11.082;2022-12-07T14:24:11;5.87;;;5.27;;
37383;SDS011;23258;49.718;11.082;2022-12-07T14:26:41;7.43;;;6.13;;
37383;SDS011;23258;49.718;11.082;2022-12-07T14:29:21;6.80;;;5.90;;
37383;SDS011;23258;49.718;11.082;2022-12-07T14:31:51;5.97;;;5.07;;
37383;SDS011;23258;49.718;11.082;2022-12-07T14:34:24;5.47;;;4.90;;
37383;SDS011;23258;49.718;11.082;2022-12-07T14:36:53;5.57;;;4.87;;
37383;SDS011;23258;49.718;11.082;2022-12-07T14:39:23;8.17;;;5.07;;
37383;SDS011;23258;49.718;11.082;2022-12-07T14:41:52;9.10;;;5.87;;
37383;SDS011;23258;49.718;11.082;2022-12-07T14:44:22;5.70;;;5.10;;
37383;SDS011;23258;49.718;11.082;2022-12-07T14:47:00;6.43;;;5.47;;
37383;SDS011;23258;49.718;11.082;2022-12-07T14:49:52;5.97;;;5.37;;
37383;SDS011;23258;49.718;11.082;2022-12-07T14:52:27;6.87;;;5.43;;
37383;SDS011;23258;49.718;11.082;2022-12-07T14:55:19;5.73;;;5.17;;
37383;SDS011;23258;49.718;11.082;2022-12-07T14:57:49;6.13;;;4.83;;
37383;SDS011;23258;49.718;11.082;2022-12-07T15:00:20;6.37;;;4.93;;
37383;SDS011;23258;49.718;11.082;2022-12-07T15:02:50;6.00;;;4.97;;
37383;SDS011;23258;49.718;11.082;2022-12-07T15:05:22;5.17;;;4.70;;
37383;SDS011;23258;49.718;11.082;2022-12-07T15:07:52;6.77;;;5.37;;
37383;SDS011;23258;49.718;11.082;2022-12-07T15:10:23;7.03;;;5.63;;
37383;SDS011;23258;49.718;11.082;2022-12-07T15:12:56;9.37;;;6.30;;
37383;SDS011;23258;49.718;11.082;2022-12-07T15:15:46;7.93;;;6.43;;
37383;SDS011;23258;49.718;11.082;2022-12-07T15:18:16;9.57;;;7.57;;
37383;SDS011;23258;49.718;11.082;2022-12-07T15:20:49;9.37;;;6.13;;
37383;SDS011;23258;49.718;11.082;2022-12-07T15:23:19;10.47;;;6.33;;
37383;SDS011;23258;49.718;11.082;2022-12-07T15:25:48;7.07;;;5.63;;
37383;SDS011;23258;49.718;11.082;2022-12-07T15:28:18;13.50;;;7.80;;
37383;SDS011;23258;49.718;11.082;2022-12-07T15:30:47;10.03;;;7.63;;
37383;SDS011;23258;49.718;11.082;2022-12-07T15:33:17;9.53;;;7.50;;
37383;SDS011;23258;49.718;11.082;2022-12-07T15:35:49;12.43;;;8.87;;
37383;SDS011;23258;49.718;11.082;2022-12-07T15:38:22;11.50;;;7.83;;
37383;SDS011;23258;49.718;11.082;2022-12-07T15:41:13;9.83;;;6.83;;
37383;SDS011;23258;49.718;11.082;2022-12-07T15:43:43;7.27;;;6.43;;
37383;SDS011;23258;49.718;11.082;2022-12-07T15:46:28;11.70;;;6.20;;
37383;SDS011;23258;49.718;11.082;2022-12-07T15:48:58;9.30;;;6.70;;
37383;SDS011;23258;49.718;11.082;2022-12-07T15:51:31;6.53;;;5.83;;